createdAt,value
2017-03-01T00:00:02.647Z,0
2017-03-01T00:01:12.852Z,0
2017-03-01T00:02:22.165Z,0
2017-03-01T00:03:31.926Z,0
2017-03-01T00:04:41.316Z,0
2017-03-01T00:05:50.641Z,0
2017-03-01T00:06:59.962Z,0
2017-03-01T00:08:09.267Z,0
2017-03-01T00:09:18.604Z,0
2017-03-01T00:10:28.409Z,0
2017-03-01T00:11:37.731Z,0
2017-03-01T00:12:47.484Z,0
2017-03-01T00:13:57.263Z,0
2017-03-01T00:15:07.026Z,0
2017-03-01T00:16:16.411Z,0
2017-03-01T00:17:25.735Z,0
2017-03-01T00:18:35.506Z,0
2017-03-01T00:19:45.279Z,0
2017-03-01T00:20:54.608Z,0
2017-03-01T00:22:03.977Z,0
2017-03-01T00:23:13.735Z,0
2017-03-01T00:24:23.052Z,0
2017-03-01T00:25:32.371Z,0
2017-03-01T00:26:42.130Z,0
2017-03-01T00:27:51.518Z,0
2017-03-01T00:29:00.843Z,0
2017-03-01T00:30:10.625Z,0
2017-03-01T00:31:19.974Z,0
2017-03-01T00:32:29.765Z,0
2017-03-01T00:33:39.143Z,0
2017-03-01T00:34:48.458Z,0
2017-03-01T00:35:58.223Z,0
2017-03-01T00:37:07.568Z,0
2017-03-01T00:38:17.781Z,0
2017-03-01T00:39:27.591Z,0
2017-03-01T00:40:37.353Z,0
2017-03-01T00:41:46.677Z,0
2017-03-01T00:42:56.018Z,0
2017-03-01T00:44:05.763Z,0
2017-03-01T00:45:15.568Z,0
2017-03-01T00:46:25.338Z,0
2017-03-01T00:47:34.683Z,0
2017-03-01T00:48:44.452Z,0
2017-03-01T00:49:53.781Z,0
2017-03-01T00:51:03.143Z,0
2017-03-01T00:52:12.460Z,0
2017-03-01T00:53:21.804Z,0
2017-03-01T00:54:32.002Z,0
2017-03-01T00:55:41.327Z,0
2017-03-01T00:56:50.704Z,0
2017-03-01T00:58:00.034Z,0
2017-03-01T00:59:09.343Z,0
2017-03-01T01:00:18.662Z,0
2017-03-01T01:01:28.873Z,0
2017-03-01T01:02:38.874Z,0
2017-03-01T01:03:48.676Z,0
2017-03-01T01:04:58.428Z,0
2017-03-01T01:06:07.746Z,0
2017-03-01T01:07:17.937Z,0
2017-03-01T01:08:28.312Z,0
2017-03-01T01:09:37.641Z,0
2017-03-01T01:10:46.970Z,0
2017-03-01T01:11:56.296Z,0
2017-03-01T01:13:05.629Z,0
2017-03-01T01:14:15.013Z,0
2017-03-01T01:15:24.343Z,0
2017-03-01T01:16:33.667Z,0
2017-03-01T01:17:43.001Z,0
2017-03-01T01:18:52.313Z,0
2017-03-01T01:20:02.132Z,0
2017-03-01T01:21:11.885Z,0
2017-03-01T01:22:21.196Z,0
2017-03-01T01:23:30.527Z,0
2017-03-01T01:24:40.320Z,0
2017-03-01T01:25:49.702Z,0
2017-03-01T01:26:59.019Z,0
2017-03-01T01:28:08.368Z,0
2017-03-01T01:29:18.145Z,0
2017-03-01T01:30:27.481Z,0
2017-03-01T01:31:36.860Z,0
2017-03-01T01:32:46.195Z,0
2017-03-01T01:33:55.506Z,0
2017-03-01T01:35:04.827Z,0
2017-03-01T01:36:14.144Z,0
2017-03-01T01:37:23.533Z,0
2017-03-01T01:38:32.865Z,0
2017-03-01T01:39:42.619Z,0
2017-03-01T01:40:51.929Z,0
2017-03-01T01:42:01.258Z,0
2017-03-01T01:43:10.817Z,0
2017-03-01T01:44:20.148Z,0
2017-03-01T01:45:29.474Z,0
2017-03-01T01:46:39.241Z,0
2017-03-01T01:47:49.882Z,0
2017-03-01T01:49:00.157Z,0
2017-03-01T01:50:09.498Z,0
2017-03-01T01:51:18.824Z,0
2017-03-01T01:52:28.153Z,0
2017-03-01T01:53:37.498Z,0
2017-03-01T01:54:46.867Z,0
2017-03-01T01:55:56.648Z,0
2017-03-01T01:57:06.861Z,0
2017-03-01T01:58:16.174Z,0
2017-03-01T01:59:26.817Z,0
2017-03-01T02:00:36.198Z,0
2017-03-01T02:01:45.510Z,0
2017-03-01T02:02:54.823Z,0
2017-03-01T02:04:04.152Z,0
2017-03-01T02:05:13.505Z,0
2017-03-01T02:06:23.318Z,0
2017-03-01T02:07:33.067Z,0
2017-03-01T02:08:42.394Z,0
2017-03-01T02:09:51.738Z,0
2017-03-01T02:11:01.071Z,0
2017-03-01T02:12:10.432Z,0
2017-03-01T02:13:20.189Z,0
2017-03-01T02:14:29.531Z,0
2017-03-01T02:15:38.848Z,0
2017-03-01T02:16:48.605Z,0
2017-03-01T02:17:58.154Z,0
2017-03-01T02:19:07.479Z,0
2017-03-01T02:20:18.145Z,0
2017-03-01T02:21:33.768Z,0
2017-03-01T02:22:43.543Z,0
2017-03-01T02:23:54.656Z,0
2017-03-01T02:25:04.846Z,0
2017-03-01T02:26:15.033Z,0
2017-03-01T02:27:25.662Z,0
2017-03-01T02:28:35.856Z,0
2017-03-01T02:29:46.111Z,0
2017-03-01T02:30:55.431Z,0
2017-03-01T02:32:05.632Z,0
2017-03-01T02:33:15.378Z,0
2017-03-01T02:34:25.133Z,0
2017-03-01T02:35:36.254Z,0
2017-03-01T02:36:46.029Z,0
2017-03-01T02:37:56.666Z,0
2017-03-01T02:39:06.843Z,0
2017-03-01T02:40:17.045Z,0
2017-03-01T02:41:27.282Z,0
2017-03-01T02:42:37.458Z,0
2017-03-01T02:43:48.096Z,0
2017-03-01T02:44:58.725Z,0
2017-03-01T02:46:08.923Z,0
2017-03-01T02:47:19.163Z,0
2017-03-01T02:48:29.365Z,0
2017-03-01T02:49:39.542Z,0
2017-03-01T02:50:49.275Z,0
2017-03-01T02:51:59.484Z,0
2017-03-01T02:53:09.730Z,0
2017-03-01T02:54:19.498Z,0
2017-03-01T02:55:29.267Z,0
2017-03-01T02:56:40.325Z,0
2017-03-01T02:57:50.951Z,0
2017-03-01T02:59:01.200Z,0
2017-03-01T03:00:12.277Z,0
2017-03-01T03:01:22.464Z,0
2017-03-01T03:02:32.214Z,0
2017-03-01T03:03:41.524Z,0
2017-03-01T03:04:51.328Z,0
2017-03-01T03:06:01.937Z,0
2017-03-01T03:07:12.560Z,0
2017-03-01T03:08:22.313Z,0
2017-03-01T03:09:32.066Z,0
2017-03-01T03:10:41.864Z,0
2017-03-01T03:11:52.519Z,0
2017-03-01T03:13:03.170Z,0
2017-03-01T03:14:13.374Z,0
2017-03-01T03:15:22.687Z,0
2017-03-01T03:16:32.477Z,0
2017-03-01T03:17:42.219Z,0
2017-03-01T03:18:51.971Z,0
2017-03-01T03:20:02.159Z,0
2017-03-01T03:21:11.926Z,0
2017-03-01T03:22:21.298Z,0
2017-03-01T03:23:30.624Z,0
2017-03-01T03:24:40.820Z,0
2017-03-01T03:25:51.026Z,0
2017-03-01T03:27:01.220Z,0
2017-03-01T03:28:11.039Z,0
2017-03-01T03:29:21.225Z,0
2017-03-01T03:30:31.846Z,0
2017-03-01T03:31:41.625Z,0
2017-03-01T03:32:51.378Z,0
2017-03-01T03:34:01.215Z,0
2017-03-01T03:35:10.963Z,0
2017-03-01T03:36:21.148Z,0
2017-03-01T03:37:31.323Z,0
2017-03-01T03:38:41.490Z,0
2017-03-01T03:39:51.324Z,0
2017-03-01T03:41:01.506Z,0
2017-03-01T03:42:11.726Z,0
2017-03-01T03:43:21.903Z,0
2017-03-01T03:44:32.098Z,0
2017-03-01T03:45:41.499Z,0
2017-03-01T03:46:51.263Z,0
2017-03-01T03:48:01.000Z,0
2017-03-01T03:49:11.642Z,0
2017-03-01T03:50:21.429Z,0
2017-03-01T03:51:31.245Z,0
2017-03-01T03:52:41.868Z,0
2017-03-01T03:53:52.060Z,0
2017-03-01T03:55:02.267Z,0
2017-03-01T03:56:12.031Z,0
2017-03-01T03:57:21.822Z,0
2017-03-01T03:58:32.480Z,0
2017-03-01T03:59:41.785Z,0
2017-03-01T04:00:51.086Z,0
2017-03-01T04:02:00.412Z,0
2017-03-01T04:03:10.208Z,0
2017-03-01T04:04:19.978Z,0
2017-03-01T04:05:30.627Z,0
2017-03-01T04:06:41.260Z,0
2017-03-01T04:07:51.016Z,0
2017-03-01T04:09:01.693Z,0
2017-03-01T04:10:11.438Z,0
2017-03-01T04:11:21.213Z,0
2017-03-01T04:12:31.394Z,0
2017-03-01T04:13:41.151Z,0
2017-03-01T04:14:51.377Z,0
2017-03-01T04:16:01.137Z,0
2017-03-01T04:17:11.327Z,0
2017-03-01T04:18:21.100Z,0
2017-03-01T04:19:30.856Z,0
2017-03-01T04:20:41.085Z,0
2017-03-01T04:21:51.260Z,0
2017-03-01T04:23:00.633Z,0
2017-03-01T04:24:10.835Z,0
2017-03-01T04:25:20.606Z,0
2017-03-01T04:26:30.839Z,0
2017-03-01T04:27:41.030Z,0
2017-03-01T04:28:50.342Z,0
2017-03-01T04:30:00.528Z,0
2017-03-01T04:31:10.737Z,0
2017-03-01T04:32:21.393Z,0
2017-03-01T04:33:32.458Z,0
2017-03-01T04:34:42.204Z,0
2017-03-01T04:35:51.960Z,0
2017-03-01T04:37:02.143Z,0
2017-03-01T04:38:12.392Z,0
2017-03-01T04:39:22.599Z,0
2017-03-01T04:40:32.801Z,0
2017-03-01T04:41:43.427Z,0
2017-03-01T04:42:54.032Z,0
2017-03-01T04:44:03.396Z,0
2017-03-01T04:45:13.591Z,0
2017-03-01T04:46:23.780Z,0
2017-03-01T04:47:33.959Z,0
2017-03-01T04:48:44.582Z,0
2017-03-01T04:49:54.379Z,0
2017-03-01T04:51:04.563Z,0
2017-03-01T04:52:14.756Z,0
2017-03-01T04:53:25.365Z,0
2017-03-01T04:54:35.551Z,0
2017-03-01T04:55:45.785Z,0
2017-03-01T04:56:55.128Z,0
2017-03-01T04:58:05.310Z,0
2017-03-01T04:59:15.955Z,0
2017-03-01T05:00:26.136Z,0
2017-03-01T05:01:36.814Z,0
2017-03-01T05:02:46.572Z,0
2017-03-01T05:03:55.899Z,0
2017-03-01T05:05:06.085Z,0
2017-03-01T05:06:16.272Z,0
2017-03-01T05:07:26.081Z,0
2017-03-01T05:08:36.270Z,0
2017-03-01T05:09:46.026Z,0
2017-03-01T05:10:56.648Z,0
2017-03-01T05:12:05.960Z,0
2017-03-01T05:13:16.319Z,0
2017-03-01T05:14:26.967Z,0
2017-03-01T05:15:36.735Z,0
2017-03-01T05:16:46.488Z,0
2017-03-01T05:17:56.675Z,0
2017-03-01T05:19:06.043Z,0
2017-03-01T05:20:16.237Z,0
2017-03-01T05:21:26.411Z,0
2017-03-01T05:22:36.611Z,0
2017-03-01T05:23:46.805Z,0
2017-03-01T05:24:56.588Z,0
2017-03-01T05:26:06.790Z,0
2017-03-01T05:27:17.403Z,0
2017-03-01T05:28:28.017Z,0
2017-03-01T05:29:38.651Z,0
2017-03-01T05:30:48.883Z,0
2017-03-01T05:31:58.654Z,0
2017-03-01T05:33:07.961Z,0
2017-03-01T05:34:18.586Z,0
2017-03-01T05:35:29.624Z,0
2017-03-01T05:36:40.024Z,0
2017-03-01T05:37:49.773Z,0
2017-03-01T05:38:59.519Z,0
2017-03-01T05:40:09.709Z,0
2017-03-01T05:41:19.466Z,0
2017-03-01T05:42:29.260Z,0
2017-03-01T05:43:39.429Z,0
2017-03-01T05:44:49.169Z,0
2017-03-01T05:45:58.914Z,0
2017-03-01T05:47:09.552Z,0
2017-03-01T05:48:20.229Z,0
2017-03-01T05:49:29.999Z,0
2017-03-01T05:50:39.743Z,0
2017-03-01T05:51:49.507Z,0
2017-03-01T05:52:59.687Z,0
2017-03-01T05:54:09.080Z,0
2017-03-01T05:55:19.261Z,0
2017-03-01T05:56:28.586Z,0
2017-03-01T05:57:38.343Z,0
2017-03-01T05:58:47.660Z,0
2017-03-01T05:59:57.458Z,0
2017-03-01T06:01:07.189Z,0
2017-03-01T06:02:18.267Z,0
2017-03-01T06:03:28.457Z,0
2017-03-01T06:04:37.783Z,0
2017-03-01T06:05:47.576Z,0
2017-03-01T06:06:57.329Z,0
2017-03-01T06:08:07.093Z,0
2017-03-01T06:09:17.724Z,0
2017-03-01T06:10:27.039Z,0
2017-03-01T06:11:37.298Z,0
2017-03-01T06:12:47.046Z,0
2017-03-01T06:13:57.223Z,0
2017-03-01T06:15:07.429Z,0
2017-03-01T06:16:17.205Z,0
2017-03-01T06:17:28.320Z,0
2017-03-01T06:18:38.079Z,0
2017-03-01T06:19:48.268Z,0
2017-03-01T06:20:58.895Z,0
2017-03-01T06:22:08.204Z,0
2017-03-01T06:23:17.992Z,0
2017-03-01T06:24:27.754Z,5
2017-03-01T06:25:37.520Z,5
2017-03-01T06:26:47.704Z,0
2017-03-01T06:27:58.334Z,0
2017-03-01T06:29:07.860Z,0
2017-03-01T06:30:17.641Z,5
2017-03-01T06:31:26.937Z,5
2017-03-01T06:32:36.706Z,5
2017-03-01T06:33:46.894Z,5
2017-03-01T06:34:56.709Z,5
2017-03-01T06:36:06.897Z,5
2017-03-01T06:37:16.640Z,5
2017-03-01T06:38:26.841Z,5
2017-03-01T06:39:36.590Z,5
2017-03-01T06:40:47.294Z,5
2017-03-01T06:41:57.088Z,5
2017-03-01T06:43:06.849Z,5
2017-03-01T06:44:16.187Z,5
2017-03-01T06:45:25.941Z,5
2017-03-01T06:46:35.728Z,5
2017-03-01T06:47:45.919Z,5
2017-03-01T06:48:55.672Z,5
2017-03-01T06:50:04.972Z,10
2017-03-01T06:51:15.153Z,10
2017-03-01T06:52:24.958Z,10
2017-03-01T06:53:34.308Z,10
2017-03-01T06:54:44.059Z,10
2017-03-01T06:55:53.811Z,15
2017-03-01T06:57:04.864Z,15
2017-03-01T06:58:14.234Z,15
2017-03-01T06:59:24.401Z,20
2017-03-01T07:00:35.040Z,20
2017-03-01T07:01:45.664Z,25
2017-03-01T07:02:56.301Z,30
2017-03-01T07:04:06.114Z,30
2017-03-01T07:05:16.729Z,35
2017-03-01T07:06:26.485Z,40
2017-03-01T07:07:36.687Z,40
2017-03-01T07:08:45.999Z,40
2017-03-01T07:09:57.109Z,40
2017-03-01T07:11:06.441Z,45
2017-03-01T07:12:17.051Z,40
2017-03-01T07:13:27.657Z,40
2017-03-01T07:14:37.418Z,35
2017-03-01T07:15:47.656Z,30
2017-03-01T07:16:56.964Z,25
2017-03-01T07:18:07.609Z,20
2017-03-01T07:19:17.807Z,15
2017-03-01T07:20:27.984Z,15
2017-03-01T07:21:38.253Z,15
2017-03-01T07:22:48.859Z,10
2017-03-01T07:23:59.043Z,15
2017-03-01T07:25:09.249Z,15
2017-03-01T07:26:20.322Z,20
2017-03-01T07:27:30.562Z,25
2017-03-01T07:28:40.315Z,30
2017-03-01T07:29:50.538Z,30
2017-03-01T07:31:00.294Z,30
2017-03-01T07:32:10.915Z,25
2017-03-01T07:33:21.309Z,25
2017-03-01T07:34:31.954Z,25
2017-03-01T07:35:41.740Z,20
2017-03-01T07:36:51.521Z,20
2017-03-01T07:38:01.278Z,20
2017-03-01T07:39:11.554Z,20
2017-03-01T07:40:22.193Z,20
2017-03-01T07:41:32.482Z,20
2017-03-01T07:42:45.358Z,20
2017-03-01T07:43:57.107Z,20
2017-03-01T07:45:08.958Z,25
2017-03-01T07:46:19.254Z,25
2017-03-01T07:47:29.006Z,25
2017-03-01T07:48:40.157Z,25
2017-03-01T07:49:51.845Z,25
2017-03-01T07:51:03.418Z,25
2017-03-01T07:52:16.577Z,20
2017-03-01T07:53:27.932Z,20
2017-03-01T07:54:38.099Z,20
2017-03-01T07:55:50.400Z,20
2017-03-01T07:57:02.150Z,20
2017-03-01T07:58:13.915Z,15
2017-03-01T07:59:24.662Z,15
2017-03-01T08:00:33.975Z,15
2017-03-01T08:01:44.169Z,15
2017-03-01T08:02:54.400Z,20
2017-03-01T08:04:04.575Z,30
2017-03-01T08:05:14.765Z,35
2017-03-01T08:06:24.938Z,40
2017-03-01T08:07:35.116Z,45
2017-03-01T08:08:44.488Z,55
2017-03-01T08:09:54.699Z,60
2017-03-01T08:11:05.356Z,50
2017-03-01T08:12:15.545Z,50
2017-03-01T08:13:25.757Z,50
2017-03-01T08:14:36.871Z,50
2017-03-01T08:15:46.621Z,45
2017-03-01T08:16:57.261Z,40
2017-03-01T08:18:07.443Z,35
2017-03-01T08:19:17.628Z,30
2017-03-01T08:20:27.855Z,30
2017-03-01T08:21:37.607Z,35
2017-03-01T08:22:48.663Z,30
2017-03-01T08:23:59.313Z,30
2017-03-01T08:25:09.945Z,25
2017-03-01T08:26:19.307Z,25
2017-03-01T08:27:29.482Z,20
2017-03-01T08:28:40.121Z,20
2017-03-01T08:29:49.888Z,15
2017-03-01T08:31:00.945Z,15
2017-03-01T08:32:10.745Z,20
2017-03-01T08:33:20.951Z,20
2017-03-01T08:34:30.252Z,20
2017-03-01T08:35:40.461Z,20
2017-03-01T08:36:50.214Z,25
2017-03-01T08:38:00.446Z,25
2017-03-01T08:39:11.059Z,30
2017-03-01T08:40:21.250Z,35
2017-03-01T08:41:31.003Z,35
2017-03-01T08:42:40.771Z,40
2017-03-01T08:43:51.002Z,40
2017-03-01T08:45:00.811Z,40
2017-03-01T08:46:11.000Z,40
2017-03-01T08:47:21.186Z,55
2017-03-01T08:48:31.817Z,65
2017-03-01T08:49:42.495Z,60
2017-03-01T08:50:52.257Z,65
2017-03-01T08:52:02.458Z,55
2017-03-01T08:53:12.207Z,55
2017-03-01T08:54:21.975Z,55
2017-03-01T08:55:32.212Z,65
2017-03-01T08:56:43.278Z,55
2017-03-01T08:57:53.908Z,50
2017-03-01T08:59:03.668Z,45
2017-03-01T09:00:13.882Z,45
2017-03-01T09:01:23.696Z,50
2017-03-01T09:02:34.329Z,50
2017-03-01T09:03:43.645Z,50
2017-03-01T09:04:53.397Z,60
2017-03-01T09:06:03.156Z,65
2017-03-01T09:07:12.960Z,65
2017-03-01T09:08:22.731Z,65
2017-03-01T09:09:33.800Z,85
2017-03-01T09:10:43.564Z,80
2017-03-01T09:11:54.190Z,75
2017-03-01T09:13:04.424Z,85
2017-03-01T09:14:13.740Z,105
2017-03-01T09:15:24.817Z,130
2017-03-01T09:16:36.334Z,80
2017-03-01T09:17:47.407Z,80
2017-03-01T09:18:57.198Z,85
2017-03-01T09:20:06.527Z,75
2017-03-01T09:21:17.172Z,90
2017-03-01T09:22:27.349Z,95
2017-03-01T09:23:37.143Z,125
2017-03-01T09:24:47.395Z,155
2017-03-01T09:25:58.019Z,155
2017-03-01T09:27:08.212Z,110
2017-03-01T09:28:18.835Z,140
2017-03-01T09:29:28.596Z,110
2017-03-01T09:30:38.834Z,85
2017-03-01T09:31:48.605Z,55
2017-03-01T09:32:57.918Z,60
2017-03-01T09:34:08.556Z,50
2017-03-01T09:35:19.185Z,45
2017-03-01T09:36:28.556Z,35
2017-03-01T09:37:38.755Z,35
2017-03-01T09:38:48.964Z,40
2017-03-01T09:39:59.151Z,40
2017-03-01T09:41:09.379Z,40
2017-03-01T09:42:19.203Z,65
2017-03-01T09:43:29.373Z,85
2017-03-01T09:44:39.155Z,75
2017-03-01T09:45:49.377Z,85
2017-03-01T09:46:58.690Z,65
2017-03-01T09:48:08.638Z,65
2017-03-01T09:49:17.951Z,70
2017-03-01T09:50:29.024Z,90
2017-03-01T09:51:39.215Z,125
2017-03-01T09:52:48.515Z,150
2017-03-01T09:53:58.463Z,150
2017-03-01T09:55:08.660Z,165
2017-03-01T09:56:18.863Z,180
2017-03-01T09:57:29.041Z,180
2017-03-01T09:58:39.236Z,140
2017-03-01T09:59:49.027Z,135
2017-03-01T10:00:58.786Z,140
2017-03-01T10:02:08.964Z,150
2017-03-01T10:03:19.598Z,140
2017-03-01T10:04:30.236Z,140
2017-03-01T10:05:40.928Z,120
2017-03-01T10:06:50.693Z,125
2017-03-01T10:08:00.883Z,120
2017-03-01T10:09:11.073Z,80
2017-03-01T10:10:21.272Z,85
2017-03-01T10:11:31.951Z,70
2017-03-01T10:12:41.735Z,75
2017-03-01T10:13:51.489Z,90
2017-03-01T10:15:01.690Z,70
2017-03-01T10:16:11.442Z,55
2017-03-01T10:17:22.107Z,60
2017-03-01T10:18:32.306Z,60
2017-03-01T10:19:41.625Z,55
2017-03-01T10:20:51.823Z,80
2017-03-01T10:22:02.445Z,65
2017-03-01T10:23:12.705Z,90
2017-03-01T10:24:22.514Z,55
2017-03-01T10:25:33.565Z,75
2017-03-01T10:26:42.878Z,120
2017-03-01T10:27:52.190Z,80
2017-03-01T10:29:02.024Z,105
2017-03-01T10:30:12.237Z,95
2017-03-01T10:31:22.005Z,95
2017-03-01T10:32:32.208Z,85
2017-03-01T10:33:41.965Z,85
2017-03-01T10:34:52.658Z,75
2017-03-01T10:36:02.410Z,70
2017-03-01T10:37:12.597Z,80
2017-03-01T10:38:22.342Z,85
2017-03-01T10:39:31.674Z,100
2017-03-01T10:40:41.027Z,100
2017-03-01T10:41:51.641Z,105
2017-03-01T10:43:01.825Z,115
2017-03-01T10:44:11.572Z,90
2017-03-01T10:45:21.341Z,70
2017-03-01T10:46:31.581Z,80
2017-03-01T10:47:40.915Z,70
2017-03-01T10:48:51.099Z,50
2017-03-01T10:50:02.176Z,50
2017-03-01T10:51:12.369Z,55
2017-03-01T10:52:23.044Z,70
2017-03-01T10:53:33.241Z,85
2017-03-01T10:54:43.031Z,105
2017-03-01T10:55:52.786Z,115
2017-03-01T10:57:02.981Z,80
2017-03-01T10:58:13.656Z,95
2017-03-01T10:59:23.845Z,110
2017-03-01T11:00:33.664Z,115
2017-03-01T11:01:42.988Z,60
2017-03-01T11:02:53.188Z,60
2017-03-01T11:04:03.444Z,55
2017-03-01T11:05:13.215Z,45
2017-03-01T11:06:23.425Z,40
2017-03-01T11:07:33.625Z,60
2017-03-01T11:08:44.758Z,75
2017-03-01T11:09:54.111Z,55
2017-03-01T11:11:03.890Z,55
2017-03-01T11:12:13.634Z,50
2017-03-01T11:13:24.252Z,50
2017-03-01T11:14:34.429Z,45
2017-03-01T11:15:44.669Z,55
2017-03-01T11:16:55.736Z,55
2017-03-01T11:18:05.941Z,50
2017-03-01T11:19:15.245Z,50
2017-03-01T11:20:25.881Z,55
2017-03-01T11:21:36.560Z,45
2017-03-01T11:22:46.749Z,40
2017-03-01T11:23:56.067Z,60
2017-03-01T11:25:05.800Z,45
2017-03-01T11:26:15.117Z,65
2017-03-01T11:27:25.102Z,55
2017-03-01T11:28:35.306Z,60
2017-03-01T11:29:45.500Z,30
2017-03-01T11:30:55.254Z,40
2017-03-01T11:32:05.011Z,50
2017-03-01T11:33:14.400Z,30
2017-03-01T11:34:24.164Z,40
2017-03-01T11:35:34.794Z,55
2017-03-01T11:36:44.984Z,75
2017-03-01T11:37:54.297Z,55
2017-03-01T11:39:04.129Z,45
2017-03-01T11:40:14.310Z,45
2017-03-01T11:41:24.511Z,35
2017-03-01T11:42:34.301Z,35
2017-03-01T11:43:44.046Z,40
2017-03-01T11:44:54.274Z,55
2017-03-01T11:46:04.027Z,75
2017-03-01T11:47:14.229Z,120
2017-03-01T11:48:24.435Z,60
2017-03-01T11:49:34.200Z,90
2017-03-01T11:50:44.009Z,65
2017-03-01T11:51:53.327Z,65
2017-03-01T11:53:03.534Z,60
2017-03-01T11:54:14.167Z,40
2017-03-01T11:55:24.818Z,55
2017-03-01T11:56:35.059Z,70
2017-03-01T11:57:44.379Z,100
2017-03-01T11:58:54.157Z,50
2017-03-01T12:00:04.329Z,30
2017-03-01T12:01:14.080Z,30
2017-03-01T12:02:23.904Z,40
2017-03-01T12:03:34.086Z,20
2017-03-01T12:04:43.411Z,25
2017-03-01T12:05:53.171Z,35
2017-03-01T12:07:03.786Z,55
2017-03-01T12:08:13.597Z,60
2017-03-01T12:09:23.807Z,70
2017-03-01T12:10:34.001Z,60
2017-03-01T12:11:44.185Z,80
2017-03-01T12:12:54.823Z,105
2017-03-01T12:14:04.633Z,115
2017-03-01T12:15:14.820Z,110
2017-03-01T12:16:24.594Z,80
2017-03-01T12:17:34.780Z,85
2017-03-01T12:18:44.537Z,75
2017-03-01T12:19:54.333Z,65
2017-03-01T12:21:03.658Z,75
2017-03-01T12:22:13.883Z,85
2017-03-01T12:23:24.068Z,85
2017-03-01T12:24:34.703Z,60
2017-03-01T12:25:45.027Z,55
2017-03-01T12:26:55.208Z,70
2017-03-01T12:28:05.397Z,60
2017-03-01T12:29:15.138Z,60
2017-03-01T12:30:25.329Z,80
2017-03-01T12:31:34.706Z,80
2017-03-01T12:32:44.891Z,70
2017-03-01T12:33:55.947Z,55
2017-03-01T12:35:06.573Z,50
2017-03-01T12:36:16.345Z,45
2017-03-01T12:37:26.150Z,45
2017-03-01T12:38:36.359Z,40
2017-03-01T12:39:47.410Z,40
2017-03-01T12:40:57.171Z,40
2017-03-01T12:42:08.243Z,40
2017-03-01T12:43:18.474Z,40
2017-03-01T12:44:28.231Z,40
2017-03-01T12:45:38.432Z,45
2017-03-01T12:46:48.617Z,50
2017-03-01T12:47:58.809Z,100
2017-03-01T12:49:09.038Z,100
2017-03-01T12:50:18.813Z,90
2017-03-01T12:51:28.554Z,85
2017-03-01T12:52:38.731Z,70
2017-03-01T12:53:48.943Z,115
2017-03-01T12:54:59.210Z,120
2017-03-01T12:56:09.851Z,105
2017-03-01T12:57:20.032Z,95
2017-03-01T12:58:30.229Z,100
2017-03-01T12:59:39.533Z,85
2017-03-01T13:00:49.335Z,85
2017-03-01T13:01:58.661Z,90
2017-03-01T13:03:08.401Z,70
2017-03-01T13:04:19.031Z,85
2017-03-01T13:05:28.783Z,60
2017-03-01T13:06:39.037Z,65
2017-03-01T13:07:49.242Z,55
2017-03-01T13:08:59.871Z,25
2017-03-01T13:10:10.053Z,25
2017-03-01T13:11:19.357Z,25
2017-03-01T13:12:29.608Z,25
2017-03-01T13:13:39.789Z,30
2017-03-01T13:14:49.964Z,35
2017-03-01T13:15:59.299Z,20
2017-03-01T13:17:09.532Z,15
2017-03-01T13:18:19.364Z,15
2017-03-01T13:19:29.562Z,15
2017-03-01T13:20:39.763Z,15
2017-03-01T13:21:49.949Z,30
2017-03-01T13:22:59.694Z,25
2017-03-01T13:24:09.942Z,30
2017-03-01T13:25:19.708Z,35
2017-03-01T13:26:29.024Z,35
2017-03-01T13:27:39.189Z,35
2017-03-01T13:28:49.376Z,45
2017-03-01T13:29:59.169Z,70
2017-03-01T13:31:09.369Z,85
2017-03-01T13:32:19.130Z,70
2017-03-01T13:33:29.767Z,40
2017-03-01T13:34:39.945Z,40
2017-03-01T13:35:50.179Z,35
2017-03-01T13:37:00.358Z,40
2017-03-01T13:38:10.539Z,50
2017-03-01T13:39:20.718Z,50
2017-03-01T13:40:30.479Z,50
2017-03-01T13:41:44.871Z,60
2017-03-01T13:42:55.078Z,60
2017-03-01T13:44:04.827Z,75
2017-03-01T13:45:15.892Z,95
2017-03-01T13:46:26.077Z,70
2017-03-01T13:47:36.774Z,45
2017-03-01T13:48:46.974Z,40
2017-03-01T13:49:56.733Z,45
2017-03-01T13:51:07.346Z,50
2017-03-01T13:52:17.530Z,55
2017-03-01T13:53:26.879Z,50
2017-03-01T13:54:37.513Z,55
2017-03-01T13:55:47.255Z,55
2017-03-01T13:56:57.015Z,55
2017-03-01T13:58:07.253Z,45
2017-03-01T13:59:17.477Z,55
2017-03-01T14:00:27.235Z,55
2017-03-01T14:01:37.417Z,45
2017-03-01T14:02:47.184Z,40
2017-03-01T14:03:56.931Z,45
2017-03-01T14:05:07.167Z,40
2017-03-01T14:06:17.386Z,45
2017-03-01T14:07:27.137Z,65
2017-03-01T14:08:37.764Z,60
2017-03-01T14:09:47.525Z,80
2017-03-01T14:10:57.345Z,70
2017-03-01T14:12:06.682Z,70
2017-03-01T14:13:16.012Z,60
2017-03-01T14:14:25.357Z,60
2017-03-01T14:15:34.683Z,70
2017-03-01T14:16:44.064Z,75
2017-03-01T14:17:53.824Z,55
2017-03-01T14:19:04.455Z,65
2017-03-01T14:20:14.643Z,70
2017-03-01T14:21:24.436Z,70
2017-03-01T14:22:35.113Z,65
2017-03-01T14:23:44.884Z,60
2017-03-01T14:24:54.616Z,60
2017-03-01T14:26:04.822Z,55
2017-03-01T14:27:15.458Z,45
2017-03-01T14:28:26.581Z,45
2017-03-01T14:29:36.346Z,25
2017-03-01T14:30:46.562Z,20
2017-03-01T14:31:56.752Z,20
2017-03-01T14:33:06.973Z,15
2017-03-01T14:34:17.647Z,15
2017-03-01T14:35:26.979Z,20
2017-03-01T14:36:37.597Z,30
2017-03-01T14:37:47.821Z,30
2017-03-01T14:38:57.568Z,35
2017-03-01T14:40:08.236Z,35
2017-03-01T14:41:18.473Z,40
2017-03-01T14:42:28.864Z,30
2017-03-01T14:43:39.077Z,40
2017-03-01T14:44:49.288Z,25
2017-03-01T14:45:59.524Z,25
2017-03-01T14:47:09.729Z,25
2017-03-01T14:48:19.488Z,40
2017-03-01T14:49:30.123Z,25
2017-03-01T14:50:40.308Z,25
2017-03-01T14:51:50.112Z,30
2017-03-01T14:52:59.873Z,35
2017-03-01T14:54:09.643Z,25
2017-03-01T14:55:19.406Z,30
2017-03-01T14:56:30.038Z,30
2017-03-01T14:57:40.266Z,45
2017-03-01T14:58:50.460Z,55
2017-03-01T15:00:00.639Z,50
2017-03-01T15:01:11.275Z,50
2017-03-01T15:02:21.056Z,50
2017-03-01T15:03:31.714Z,50
2017-03-01T15:04:41.907Z,45
2017-03-01T15:05:51.675Z,35
2017-03-01T15:07:02.298Z,40
2017-03-01T15:08:12.475Z,40
2017-03-01T15:09:23.147Z,45
2017-03-01T15:10:33.801Z,50
2017-03-01T15:11:43.549Z,45
2017-03-01T15:12:53.765Z,45
2017-03-01T15:14:03.973Z,40
2017-03-01T15:15:14.222Z,40
2017-03-01T15:16:23.971Z,40
2017-03-01T15:17:33.732Z,45
2017-03-01T15:18:43.490Z,55
2017-03-01T15:19:53.244Z,45
2017-03-01T15:21:03.063Z,40
2017-03-01T15:22:12.810Z,30
2017-03-01T15:23:22.562Z,25
2017-03-01T15:24:32.312Z,25
2017-03-01T15:25:42.563Z,25
2017-03-01T15:26:52.371Z,25
2017-03-01T15:28:01.683Z,35
2017-03-01T15:29:11.908Z,35
2017-03-01T15:30:21.679Z,35
2017-03-01T15:31:31.870Z,25
2017-03-01T15:32:42.545Z,25
2017-03-01T15:33:52.725Z,20
2017-03-01T15:35:02.922Z,20
2017-03-01T15:36:13.548Z,20
2017-03-01T15:37:22.881Z,20
2017-03-01T15:38:32.330Z,20
2017-03-01T15:39:42.080Z,15
2017-03-01T15:40:51.405Z,15
2017-03-01T15:42:01.150Z,15
2017-03-01T15:43:10.516Z,15
2017-03-01T15:44:21.216Z,15
2017-03-01T15:45:31.398Z,15
2017-03-01T15:46:41.168Z,15
2017-03-01T15:47:52.595Z,20
2017-03-01T15:49:04.038Z,20
2017-03-01T15:50:14.826Z,15
2017-03-01T15:51:25.774Z,20
2017-03-01T15:52:37.249Z,20
2017-03-01T15:53:48.609Z,15
2017-03-01T15:55:00.830Z,15
2017-03-01T15:56:11.935Z,15
2017-03-01T15:57:22.681Z,15
2017-03-01T15:58:36.119Z,15
2017-03-01T15:59:46.055Z,10
2017-03-01T16:00:57.041Z,10
2017-03-01T16:02:14.175Z,5
2017-03-01T16:03:25.711Z,0
2017-03-01T16:04:35.852Z,0
2017-03-01T16:05:47.162Z,0
2017-03-01T16:06:58.292Z,0
2017-03-01T16:08:07.604Z,0
2017-03-01T16:09:18.453Z,0
2017-03-01T16:10:29.072Z,0
2017-03-01T16:11:39.755Z,0
2017-03-01T16:12:50.174Z,0
2017-03-01T16:14:00.594Z,5
2017-03-01T16:15:11.332Z,10
2017-03-01T16:16:21.953Z,15
2017-03-01T16:17:31.307Z,15
2017-03-01T16:18:40.688Z,20
2017-03-01T16:19:50.440Z,15
2017-03-01T16:21:02.194Z,15
2017-03-01T16:22:12.527Z,10
2017-03-01T16:23:23.587Z,10
2017-03-01T16:24:35.996Z,10
2017-03-01T16:25:45.799Z,10
2017-03-01T16:26:56.407Z,5
2017-03-01T16:28:06.700Z,5
2017-03-01T16:29:17.589Z,5
2017-03-01T16:30:27.398Z,5
2017-03-01T16:31:38.656Z,5
2017-03-01T16:32:49.286Z,5
2017-03-01T16:34:00.163Z,5
2017-03-01T16:35:11.595Z,5
2017-03-01T16:36:22.920Z,5
2017-03-01T16:37:34.922Z,5
2017-03-01T16:38:46.188Z,5
2017-03-01T16:39:57.264Z,5
2017-03-01T16:41:08.975Z,5
2017-03-01T16:42:18.582Z,0
2017-03-01T16:43:29.565Z,0
2017-03-01T16:44:39.132Z,0
2017-03-01T16:45:49.970Z,0
2017-03-01T16:47:00.645Z,0
2017-03-01T16:48:10.712Z,0
2017-03-01T16:49:21.351Z,0
2017-03-01T16:50:31.443Z,0
2017-03-01T16:51:41.803Z,0
2017-03-01T16:52:52.921Z,0